Date,TemperatureHighF,TemperatureAvgF,TemperatureLowF,DewpointHighF,DewpointAvgF,DewpointLowF,HumidityHigh,HumidityAvg,HumidityLow,PressureMaxIn,PressureMinIn,WindSpeedMaxMPH,WindSpeedAvgMPH,GustSpeedMaxMPH,PrecipitationSumIn
2013-1-1,42,32,27,40,31,26,99,96,85,30.47,30.33,6,1,0,0.00
2013-1-2,43,35,32,30,27,23,88,71,56,30.33,30.17,10,4,0,0.01
2013-1-3,45,34,29,32,25,20,97,69,46,30.18,30.08,10,3,0,0.14
2013-1-4,47,39,33,47,38,33,99,98,97,30.31,30.15,6,1,0,0.06
2013-1-5,39,38,37,38,36,33,97,91,82,30.20,30.10,8,2,0,0.14
2013-1-6,42,39,37,42,38,36,99,98,97,30.17,29.99,3,0,0,0.41
2013-1-7,46,41,37,46,41,37,100,99,99,30.15,29.82,6,1,0,1.35
2013-1-8,48,42,38,48,42,38,100,100,99,30.16,29.74,8,2,0,0.90
2013-1-9,47,37,32,47,37,32,100,100,99,29.93,29.66,7,1,0,1.12
2013-1-10,33,32,30,33,32,30,100,100,99,30.08,29.92,1,0,0,0.04
2013-1-11,36,30,25,36,30,25,100,100,99,30.30,30.08,2,0,0,0.29
2013-1-12,36,26,23,35,26,22,99,97,93,30.41,30.29,2,0,0,0.09
2013-1-13,36,26,21,33,25,19,98,96,89,30.47,30.40,2,0,0,0.08
2013-1-14,32,30,28,32,30,28,99,98,98,30.54,30.44,2,0,0,0.04
2013-1-15,41,33,29,39,32,29,99,97,88,30.68,30.54,2,0,0,0.10
2013-1-16,43,31,26,39,30,25,99,97,86,30.65,30.49,2,0,0,0.04
2013-1-17,45,32,26,41,32,26,99,97,84,30.50,30.27,2,0,0,0.01
2013-1-18,38,31,27,36,30,27,99,97,91,30.32,30.23,3,0,0,0.01
2013-1-19,38,28,21,36,27,20,98,96,88,30.36,30.30,2,0,0,0.00
2013-1-20,45,28,21,41,27,20,99,95,81,30.36,30.24,3,0,0,0.01
2013-1-21,43,27,20,39,26,19,99,95,80,30.24,30.10,5,1,0,0.01
2013-1-22,40,33,24,37,30,23,98,89,67,30.13,29.88,6,1,0,0.00
2013-1-23,41,37,36,37,34,29,99,87,67,30.12,29.83,7,1,0,0.49
2013-1-24,42,38,35,41,37,35,99,97,91,30.20,30.04,6,1,0,0.21
2013-1-25,48,41,36,48,40,36,99,98,96,30.05,29.92,5,0,0,0.12
2013-1-26,38,36,35,38,36,34,99,99,98,30.01,29.87,7,0,0,1.08
2013-1-27,39,37,35,39,37,34,100,99,99,30.04,29.97,5,1,0,0.51
2013-1-28,38,36,34,38,36,34,100,100,99,30.07,29.98,6,1,0,1.18
2013-1-29,42,40,38,42,40,38,100,100,100,30.32,30.07,5,1,0,1.33
2013-1-30,47,43,40,47,43,40,100,100,100,30.37,30.32,2,0,0,0.34
2013-1-31,45,44,43,45,44,43,100,100,100,30.38,30.30,5,0,0,0.23